sensor_id;sensor_type;location;lat;lon;timestamp;pressure;altitude;pressure_sealevel;temperature;humidity
77871;BME280;67067;46.850;7.578;2023-06-22T00:00:11;95311.00;;;17.57;53.29
77871;BME280;67067;46.850;7.578;2023-06-22T00:01:13;95314.56;;;17.53;53.61
77871;BME280;67067;46.850;7.578;2023-06-22T00:02:15;95317.56;;;17.65;53.31
77871;BME280;67067;46.850;7.578;2023-06-22T00:03:17;95310.81;;;17.54;53.61
77871;BME280;67067;46.850;7.578;2023-06-22T00:04:20;95313.88;;;17.61;53.55
77871;BME280;67067;46.850;7.578;2023-06-22T00:05:21;95303.19;;;17.61;53.96
77871;BME280;67067;46.850;7.578;2023-06-22T00:06:23;95306.03;;;17.51;53.92
77871;BME280;67067;46.850;7.578;2023-06-22T00:07:25;95311.81;;;17.58;53.75
77871;BME280;67067;46.850;7.578;2023-06-22T00:08:26;95318.44;;;17.60;53.67
77871;BME280;67067;46.850;7.578;2023-06-22T00:09:28;95324.47;;;17.52;53.98
77871;BME280;67067;46.850;7.578;2023-06-22T00:10:30;95327.00;;;17.43;54.44
77871;BME280;67067;46.850;7.578;2023-06-22T00:11:34;95325.84;;;17.49;54.34
77871;BME280;67067;46.850;7.578;2023-06-22T00:12:35;95326.63;;;17.50;54.12
77871;BME280;67067;46.850;7.578;2023-06-22T00:13:37;95327.59;;;17.40;54.69
77871;BME280;67067;46.850;7.578;2023-06-22T00:14:39;95326.63;;;17.50;54.05
77871;BME280;67067;46.850;7.578;2023-06-22T00:15:46;95325.03;;;17.49;54.36
77871;BME280;67067;46.850;7.578;2023-06-22T00:16:48;95320.75;;;17.48;54.10
77871;BME280;67067;46.850;7.578;2023-06-22T00:17:51;95319.97;;;17.47;54.15
77871;BME280;67067;46.850;7.578;2023-06-22T00:18:55;95324.84;;;17.45;54.38
77871;BME280;67067;46.850;7.578;2023-06-22T00:19:57;95322.88;;;17.32;54.35
77871;BME280;67067;46.850;7.578;2023-06-22T00:21:01;95323.03;;;17.41;54.25
77871;BME280;67067;46.850;7.578;2023-06-22T00:22:05;95323.19;;;17.30;55.08
77871;BME280;67067;46.850;7.578;2023-06-22T00:23:07;95320.94;;;17.38;54.66
77871;BME280;67067;46.850;7.578;2023-06-22T00:24:09;95322.75;;;17.42;54.94
77871;BME280;67067;46.850;7.578;2023-06-22T00:25:16;95319.06;;;17.38;54.88
77871;BME280;67067;46.850;7.578;2023-06-22T00:26:21;95315.91;;;17.36;54.82
77871;BME280;67067;46.850;7.578;2023-06-22T00:27:23;95322.03;;;17.37;54.72
77871;BME280;67067;46.850;7.578;2023-06-22T00:28:25;95323.06;;;17.21;55.26
77871;BME280;67067;46.850;7.578;2023-06-22T00:29:28;95324.28;;;17.29;55.03
77871;BME280;67067;46.850;7.578;2023-06-22T00:30:31;95316.53;;;17.28;54.82
77871;BME280;67067;46.850;7.578;2023-06-22T00:31:35;95325.66;;;17.27;54.84
77871;BME280;67067;46.850;7.578;2023-06-22T00:32:37;95322.69;;;17.28;54.85
77871;BME280;67067;46.850;7.578;2023-06-22T00:33:39;95325.16;;;17.25;55.07
77871;BME280;67067;46.850;7.578;2023-06-22T00:34:40;95325.91;;;17.11;55.10
77871;BME280;67067;46.850;7.578;2023-06-22T00:35:42;95323.13;;;17.16;55.35
77871;BME280;67067;46.850;7.578;2023-06-22T00:36:44;95323.56;;;17.24;54.78
77871;BME280;67067;46.850;7.578;2023-06-22T00:37:45;95326.19;;;17.10;54.80
77871;BME280;67067;46.850;7.578;2023-06-22T00:38:48;95321.13;;;17.08;54.60
77871;BME280;67067;46.850;7.578;2023-06-22T00:39:52;95317.78;;;17.16;54.73
77871;BME280;67067;46.850;7.578;2023-06-22T00:40:58;95321.78;;;17.19;54.58
77871;BME280;67067;46.850;7.578;2023-06-22T00:41:59;95324.44;;;17.19;54.57
77871;BME280;67067;46.850;7.578;2023-06-22T00:43:01;95323.13;;;17.16;54.98
77871;BME280;67067;46.850;7.578;2023-06-22T00:44:03;95330.66;;;17.14;54.56
77871;BME280;67067;46.850;7.578;2023-06-22T00:45:06;95327.72;;;17.16;54.76
77871;BME280;67067;46.850;7.578;2023-06-22T00:46:08;95323.72;;;17.13;55.05
77871;BME280;67067;46.850;7.578;2023-06-22T00:47:12;95330.66;;;17.14;54.92
77871;BME280;67067;46.850;7.578;2023-06-22T00:48:16;95319.69;;;17.16;55.04
77871;BME280;67067;46.850;7.578;2023-06-22T00:49:23;95316.78;;;17.12;55.31
77871;BME280;67067;46.850;7.578;2023-06-22T00:50:30;95319.69;;;17.16;55.11
77871;BME280;67067;46.850;7.578;2023-06-22T00:51:38;95313.53;;;17.15;54.93
77871;BME280;67067;46.850;7.578;2023-06-22T00:52:39;95312.53;;;17.11;55.22
77871;BME280;67067;46.850;7.578;2023-06-22T00:53:45;95318.69;;;17.12;54.81
77871;BME280;67067;46.850;7.578;2023-06-22T00:54:51;95316.59;;;17.09;55.16
77871;BME280;67067;46.850;7.578;2023-06-22T00:55:55;95325.69;;;17.08;54.92
77871;BME280;67067;46.850;7.578;2023-06-22T00:56:57;95321.13;;;17.08;55.06
77871;BME280;67067;46.850;7.578;2023-06-22T00:57:59;95328.06;;;17.09;55.55
77871;BME280;67067;46.850;7.578;2023-06-22T00:59:01;95323.47;;;16.96;55.38
77871;BME280;67067;46.850;7.578;2023-06-22T01:00:07;95321.72;;;17.05;54.99
77871;BME280;67067;46.850;7.578;2023-06-22T01:01:10;95321.72;;;17.05;55.12
77871;BME280;67067;46.850;7.578;2023-06-22T01:02:12;95322.38;;;16.97;55.28
77871;BME280;67067;46.850;7.578;2023-06-22T01:03:14;95328.66;;;17.06;55.22
77871;BME280;67067;46.850;7.578;2023-06-22T01:04:19;95328.97;;;17.04;55.35
77871;BME280;67067;46.850;7.578;2023-06-22T01:05:23;95335.09;;;17.05;54.92
77871;BME280;67067;46.850;7.578;2023-06-22T01:06:36;95324.97;;;17.02;55.40
77871;BME280;67067;46.850;7.578;2023-06-22T01:07:52;95324.97;;;17.02;54.72
77871;BME280;67067;46.850;7.578;2023-06-22T01:09:05;95325.06;;;16.97;54.99
77871;BME280;67067;46.850;7.578;2023-06-22T01:11:16;95315.94;;;16.98;54.46
77871;BME280;67067;46.850;7.578;2023-06-22T01:12:19;95311.88;;;17.00;54.59
77871;BME280;67067;46.850;7.578;2023-06-22T01:14:55;95310.94;;;16.91;54.43
77871;BME280;67067;46.850;7.578;2023-06-22T01:16:17;95305.09;;;16.89;54.89
77871;BME280;67067;46.850;7.578;2023-06-22T01:17:23;95304.03;;;16.90;54.44
77871;BME280;67067;46.850;7.578;2023-06-22T01:18:28;95301.06;;;16.91;54.62
77871;BME280;67067;46.850;7.578;2023-06-22T01:19:49;95304.91;;;16.85;54.77
77871;BME280;67067;46.850;7.578;2023-06-22T01:20:57;95309.38;;;16.90;54.71
77871;BME280;67067;46.850;7.578;2023-06-22T01:22:00;95307.00;;;16.88;54.96
77871;BME280;67067;46.850;7.578;2023-06-22T01:23:25;95309.75;;;16.83;55.14
77871;BME280;67067;46.850;7.578;2023-06-22T01:26:17;95309.25;;;16.81;55.19
77871;BME280;67067;46.850;7.578;2023-06-22T01:28:46;95305.50;;;16.82;55.05
77871;BME280;67067;46.850;7.578;2023-06-22T01:29:55;95307.34;;;16.82;55.27
77871;BME280;67067;46.850;7.578;2023-06-22T01:31:02;95307.94;;;16.79;55.18
77871;BME280;67067;46.850;7.578;2023-06-22T01:32:10;95315.69;;;16.80;55.01
77871;BME280;67067;46.850;7.578;2023-06-22T01:33:13;95303.91;;;16.81;55.47
77871;BME280;67067;46.850;7.578;2023-06-22T01:34:18;95310.25;;;16.85;55.10
77871;BME280;67067;46.850;7.578;2023-06-22T01:35:21;95303.81;;;16.86;54.96
77871;BME280;67067;46.850;7.578;2023-06-22T01:36:24;95303.81;;;16.86;55.08
77871;BME280;67067;46.850;7.578;2023-06-22T01:37:29;95302.22;;;16.85;54.78
77871;BME280;67067;46.850;7.578;2023-06-22T01:38:32;95306.19;;;16.88;55.06
77871;BME280;67067;46.850;7.578;2023-06-22T01:39:35;95295.31;;;16.84;55.08
77871;BME280;67067;46.850;7.578;2023-06-22T01:40:37;95292.63;;;16.84;55.13
77871;BME280;67067;46.850;7.578;2023-06-22T01:41:41;95293.22;;;16.81;54.90
77871;BME280;67067;46.850;7.578;2023-06-22T01:42:44;95287.56;;;16.83;55.04
77871;BME280;67067;46.850;7.578;2023-06-22T01:43:52;95284.19;;;16.77;55.12
77871;BME280;67067;46.850;7.578;2023-06-22T01:44:55;95295.38;;;16.79;55.07
77871;BME280;67067;46.850;7.578;2023-06-22T01:46:00;95288.22;;;16.74;55.17
77871;BME280;67067;46.850;7.578;2023-06-22T01:47:02;95288.50;;;16.73;54.92
77871;BME280;67067;46.850;7.578;2023-06-22T01:48:05;95289.84;;;16.70;55.12
77871;BME280;67067;46.850;7.578;2023-06-22T01:49:09;95289.84;;;16.70;55.10
77871;BME280;67067;46.850;7.578;2023-06-22T01:50:12;95288.25;;;16.69;55.31
77871;BME280;67067;46.850;7.578;2023-06-22T01:51:16;95285.09;;;16.67;55.02
77871;BME280;67067;46.850;7.578;2023-06-22T01:52:20;95294.97;;;16.67;54.87
77871;BME280;67067;46.850;7.578;2023-06-22T01:53:24;95289.13;;;16.65;55.13
77871;BME280;67067;46.850;7.578;2023-06-22T01:54:28;95285.66;;;16.64;54.91
77871;BME280;67067;46.850;7.578;2023-06-22T01:55:32;95284.84;;;16.63;55.04
77871;BME280;67067;46.850;7.578;2023-06-22T01:56:36;95280.81;;;16.47;55.33
77871;BME280;67067;46.850;7.578;2023-06-22T01:57:39;95280.16;;;16.55;55.19
77871;BME280;67067;46.850;7.578;2023-06-22T01:59:00;95278.66;;;16.49;55.41
77871;BME280;67067;46.850;7.578;2023-06-22T02:00:12;95274.63;;;16.52;55.40
77871;BME280;67067;46.850;7.578;2023-06-22T02:01:20;95268.78;;;16.50;55.07
77871;BME280;67067;46.850;7.578;2023-06-22T02:02:32;95265.88;;;16.46;55.46
77871;BME280;67067;46.850;7.578;2023-06-22T02:03:44;95277.13;;;16.43;55.25
77871;BME280;67067;46.850;7.578;2023-06-22T02:05:09;95270.72;;;16.44;54.94
77871;BME280;67067;46.850;7.578;2023-06-22T02:06:16;95273.81;;;16.51;55.49
77871;BME280;67067;46.850;7.578;2023-06-22T02:07:23;95263.72;;;16.48;55.76
77871;BME280;67067;46.850;7.578;2023-06-22T02:08:29;95264.72;;;16.52;55.22
77871;BME280;67067;46.850;7.578;2023-06-22T02:09:33;95270.56;;;16.54;55.37
77871;BME280;67067;46.850;7.578;2023-06-22T02:10:38;95268.41;;;16.56;55.17
77871;BME280;67067;46.850;7.578;2023-06-22T02:11:44;95264.38;;;16.59;55.14
77871;BME280;67067;46.850;7.578;2023-06-22T02:12:48;95262.06;;;16.52;55.01
77871;BME280;67067;46.850;7.578;2023-06-22T02:13:51;95256.44;;;16.54;55.23
77871;BME280;67067;46.850;7.578;2023-06-22T02:14:56;95256.63;;;16.57;54.96
77871;BME280;67067;46.850;7.578;2023-06-22T02:15:58;95256.13;;;16.55;54.87
77871;BME280;67067;46.850;7.578;2023-06-22T02:17:00;95251.38;;;16.52;55.30
77871;BME280;67067;46.850;7.578;2023-06-22T02:18:02;95262.56;;;16.54;55.11
77871;BME280;67067;46.850;7.578;2023-06-22T02:19:05;95259.97;;;16.49;55.09
77871;BME280;67067;46.850;7.578;2023-06-22T02:20:13;95261.03;;;16.48;55.32
77871;BME280;67067;46.850;7.578;2023-06-22T02:21:20;95261.63;;;16.45;55.07
77871;BME280;67067;46.850;7.578;2023-06-22T02:22:22;95273.88;;;16.46;55.04
77871;BME280;67067;46.850;7.578;2023-06-22T02:23:26;95259.53;;;16.42;55.42
77871;BME280;67067;46.850;7.578;2023-06-22T02:24:28;95261.69;;;16.40;55.32
77871;BME280;67067;46.850;7.578;2023-06-22T02:25:37;95262.25;;;16.37;55.67
77871;BME280;67067;46.850;7.578;2023-06-22T02:26:39;95260.91;;;16.39;55.09
77871;BME280;67067;46.850;7.578;2023-06-22T02:27:43;95249.72;;;16.37;55.44
77871;BME280;67067;46.850;7.578;2023-06-22T02:28:45;95247.47;;;16.25;55.40
77871;BME280;67067;46.850;7.578;2023-06-22T02:29:51;95260.09;;;16.39;55.41
77871;BME280;67067;46.850;7.578;2023-06-22T02:30:53;95249.50;;;16.33;55.12
77871;BME280;67067;46.850;7.578;2023-06-22T02:31:54;95253.97;;;16.19;55.45
77871;BME280;67067;46.850;7.578;2023-06-22T02:32:56;95253.31;;;16.27;55.68
77871;BME280;67067;46.850;7.578;2023-06-22T02:34:01;95254.09;;;16.28;55.34
77871;BME280;67067;46.850;7.578;2023-06-22T02:35:06;95248.81;;;16.23;55.74
77871;BME280;67067;46.850;7.578;2023-06-22T02:36:10;95244.28;;;16.23;55.69
77871;BME280;67067;46.850;7.578;2023-06-22T02:37:14;95245.88;;;16.24;55.59
77871;BME280;67067;46.850;7.578;2023-06-22T02:38:16;95238.94;;;16.23;55.44
77871;BME280;67067;46.850;7.578;2023-06-22T02:39:23;95254.47;;;16.21;55.92
77871;BME280;67067;46.850;7.578;2023-06-22T02:40:25;95251.78;;;16.21;55.94
77871;BME280;67067;46.850;7.578;2023-06-22T02:41:27;95252.88;;;16.20;55.67
77871;BME280;67067;46.850;7.578;2023-06-22T02:42:30;95251.78;;;16.21;55.67
77871;BME280;67067;46.850;7.578;2023-06-22T02:43:32;95253.53;;;16.12;55.65
77871;BME280;67067;46.850;7.578;2023-06-22T02:44:36;95242.13;;;16.25;55.72
77871;BME280;67067;46.850;7.578;2023-06-22T02:45:38;95244.00;;;16.25;55.96
77871;BME280;67067;46.850;7.578;2023-06-22T02:46:40;95244.22;;;16.28;55.68
77871;BME280;67067;46.850;7.578;2023-06-22T02:47:42;95239.72;;;16.24;55.94
77871;BME280;67067;46.850;7.578;2023-06-22T02:48:46;95234.19;;;16.20;55.91
77871;BME280;67067;46.850;7.578;2023-06-22T02:49:49;95233.09;;;16.21;55.83
77871;BME280;67067;46.850;7.578;2023-06-22T02:50:51;95233.81;;;16.08;55.79
77871;BME280;67067;46.850;7.578;2023-06-22T02:51:57;95226.59;;;16.08;55.58
77871;BME280;67067;46.850;7.578;2023-06-22T02:52:59;95234.53;;;16.13;55.47
77871;BME280;67067;46.850;7.578;2023-06-22T02:54:03;95230.56;;;16.11;55.79
77871;BME280;67067;46.850;7.578;2023-06-22T02:55:06;95229.78;;;16.10;55.94
77871;BME280;67067;46.850;7.578;2023-06-22T02:56:11;95231.94;;;16.08;55.73
77871;BME280;67067;46.850;7.578;2023-06-22T02:57:14;95235.69;;;16.07;56.24
77871;BME280;67067;46.850;7.578;2023-06-22T02:58:17;95230.91;;;16.04;56.10
77871;BME280;67067;46.850;7.578;2023-06-22T02:59:19;95232.81;;;16.03;56.27
77871;BME280;67067;46.850;7.578;2023-06-22T03:00:29;95235.69;;;16.07;55.74
77871;BME280;67067;46.850;7.578;2023-06-22T03:01:32;95219.97;;;16.06;55.81
77871;BME280;67067;46.850;7.578;2023-06-22T03:02:40;95230.34;;;16.07;55.69
77871;BME280;67067;46.850;7.578;2023-06-22T03:03:44;95219.97;;;16.06;56.05
77871;BME280;67067;46.850;7.578;2023-06-22T03:04:48;95210.66;;;16.03;55.91
77871;BME280;67067;46.850;7.578;2023-06-22T03:05:55;95209.56;;;16.04;55.61
77871;BME280;67067;46.850;7.578;2023-06-22T03:06:58;95207.16;;;16.02;55.69
77871;BME280;67067;46.850;7.578;2023-06-22T03:08:06;95206.38;;;16.02;55.47
77871;BME280;67067;46.850;7.578;2023-06-22T03:09:09;95210.13;;;16.01;55.63
77871;BME280;67067;46.850;7.578;2023-06-22T03:10:16;95211.50;;;15.98;55.61
77871;BME280;67067;46.850;7.578;2023-06-22T03:11:18;95201.91;;;15.97;55.51
77871;BME280;67067;46.850;7.578;2023-06-22T03:12:21;95190.81;;;15.85;55.64
77871;BME280;67067;46.850;7.578;2023-06-22T03:13:27;95198.19;;;15.93;55.69
77871;BME280;67067;46.850;7.578;2023-06-22T03:14:28;95202.44;;;15.94;55.43
77871;BME280;67067;46.850;7.578;2023-06-22T03:15:30;95201.28;;;15.81;55.78
77871;BME280;67067;46.850;7.578;2023-06-22T03:16:32;95195.72;;;15.78;55.88
77871;BME280;67067;46.850;7.578;2023-06-22T03:17:38;95200.34;;;15.91;55.52
77871;BME280;67067;46.850;7.578;2023-06-22T03:18:41;95200.13;;;15.87;55.60
77871;BME280;67067;46.850;7.578;2023-06-22T03:19:43;95190.25;;;15.88;55.72
77871;BME280;67067;46.850;7.578;2023-06-22T03:20:44;95188.53;;;15.78;55.63
77871;BME280;67067;46.850;7.578;2023-06-22T03:21:46;95189.22;;;15.84;55.51
77871;BME280;67067;46.850;7.578;2023-06-22T03:22:48;95206.97;;;15.74;55.94
77871;BME280;67067;46.850;7.578;2023-06-22T03:23:50;95207.41;;;15.82;55.78
77871;BME280;67067;46.850;7.578;2023-06-22T03:24:52;95209.56;;;15.80;55.98
77871;BME280;67067;46.850;7.578;2023-06-22T03:25:54;95203.66;;;15.83;55.90
77871;BME280;67067;46.850;7.578;2023-06-22T03:26:57;95203.94;;;15.81;55.78
77871;BME280;67067;46.850;7.578;2023-06-22T03:27:59;95202.88;;;15.82;55.87
77871;BME280;67067;46.850;7.578;2023-06-22T03:29:04;95205.81;;;15.81;55.55
77871;BME280;67067;46.850;7.578;2023-06-22T03:30:10;95208.78;;;15.79;55.49
77871;BME280;67067;46.850;7.578;2023-06-22T03:31:12;95210.63;;;15.79;55.87
77871;BME280;67067;46.850;7.578;2023-06-22T03:32:15;95213.59;;;15.77;55.49
77871;BME280;67067;46.850;7.578;2023-06-22T03:33:18;95209.06;;;15.78;55.79
77871;BME280;67067;46.850;7.578;2023-06-22T03:34:23;95206.97;;;15.74;55.91
77871;BME280;67067;46.850;7.578;2023-06-22T03:35:27;95206.97;;;15.74;55.51
77871;BME280;67067;46.850;7.578;2023-06-22T03:36:30;95206.97;;;15.74;55.57
77871;BME280;67067;46.850;7.578;2023-06-22T03:37:31;95213.63;;;15.53;56.13
77871;BME280;67067;46.850;7.578;2023-06-22T03:38:34;95201.75;;;15.64;55.79
77871;BME280;67067;46.850;7.578;2023-06-22T03:39:35;95210.94;;;15.53;56.39
77871;BME280;67067;46.850;7.578;2023-06-22T03:40:37;95215.09;;;15.64;56.10
77871;BME280;67067;46.850;7.578;2023-06-22T03:41:39;95202.88;;;15.58;56.01
77871;BME280;67067;46.850;7.578;2023-06-22T03:42:43;95201.41;;;15.71;55.70
77871;BME280;67067;46.850;7.578;2023-06-22T03:43:45;95212.03;;;15.76;55.37
77871;BME280;67067;46.850;7.578;2023-06-22T03:44:49;95211.72;;;15.78;55.37
77871;BME280;67067;46.850;7.578;2023-06-22T03:45:50;95214.56;;;15.62;55.55
77871;BME280;67067;46.850;7.578;2023-06-22T03:46:52;95212.28;;;15.74;55.66
77871;BME280;67067;46.850;7.578;2023-06-22T03:47:56;95210.81;;;15.63;55.64
77871;BME280;67067;46.850;7.578;2023-06-22T03:48:58;95209.41;;;15.71;55.68
77871;BME280;67067;46.850;7.578;2023-06-22T03:50:00;95211.50;;;15.50;56.20
77871;BME280;67067;46.850;7.578;2023-06-22T03:51:02;95210.66;;;15.54;56.23
77871;BME280;67067;46.850;7.578;2023-06-22T03:52:07;95211.41;;;15.60;56.34
77871;BME280;67067;46.850;7.578;2023-06-22T03:53:09;95215.66;;;15.61;55.96
77871;BME280;67067;46.850;7.578;2023-06-22T03:54:14;95209.50;;;15.60;56.02
77871;BME280;67067;46.850;7.578;2023-06-22T03:55:16;95214.34;;;15.58;56.11
77871;BME280;67067;46.850;7.578;2023-06-22T03:56:17;95214.56;;;15.62;56.32
77871;BME280;67067;46.850;7.578;2023-06-22T03:57:21;95216.16;;;15.63;56.19
77871;BME280;67067;46.850;7.578;2023-06-22T03:58:26;95214.22;;;15.69;56.10
77871;BME280;67067;46.850;7.578;2023-06-22T03:59:27;95215.66;;;15.61;56.15
77871;BME280;67067;46.850;7.578;2023-06-22T04:00:29;95213.66;;;15.72;55.78
77871;BME280;67067;46.850;7.578;2023-06-22T04:01:33;95219.78;;;15.72;56.10
77871;BME280;67067;46.850;7.578;2023-06-22T04:02:35;95213.19;;;15.65;56.36
77871;BME280;67067;46.850;7.578;2023-06-22T04:03:39;95201.41;;;15.71;56.07
77871;BME280;67067;46.850;7.578;2023-06-22T04:04:44;95206.13;;;15.79;55.95
77871;BME280;67067;46.850;7.578;2023-06-22T04:05:48;95209.78;;;15.83;55.95
77871;BME280;67067;46.850;7.578;2023-06-22T04:06:50;95203.66;;;15.83;56.01
77871;BME280;67067;46.850;7.578;2023-06-22T04:07:52;95202.94;;;15.77;56.22
77871;BME280;67067;46.850;7.578;2023-06-22T04:08:54;95204.66;;;15.87;56.28
77871;BME280;67067;46.850;7.578;2023-06-22T04:09:56;95205.25;;;15.84;56.30
77871;BME280;67067;46.850;7.578;2023-06-22T04:10:58;95201.91;;;15.97;55.87
77871;BME280;67067;46.850;7.578;2023-06-22T04:12:01;95204.34;;;15.94;56.22
77871;BME280;67067;46.850;7.578;2023-06-22T04:13:02;95211.66;;;16.07;55.74
77871;BME280;67067;46.850;7.578;2023-06-22T04:14:09;95210.56;;;16.08;55.49
77871;BME280;67067;46.850;7.578;2023-06-22T04:15:11;95210.31;;;16.10;55.88
77871;BME280;67067;46.850;7.578;2023-06-22T04:16:13;95210.00;;;16.11;55.59
77871;BME280;67067;46.850;7.578;2023-06-22T04:17:15;95204.59;;;16.16;55.64
77871;BME280;67067;46.850;7.578;2023-06-22T04:18:19;95206.91;;;16.23;55.52
77871;BME280;67067;46.850;7.578;2023-06-22T04:19:21;95205.75;;;16.29;55.51
77871;BME280;67067;46.850;7.578;2023-06-22T04:20:23;95209.94;;;16.36;54.99
77871;BME280;67067;46.850;7.578;2023-06-22T04:21:31;95203.25;;;16.38;54.92
77871;BME280;67067;46.850;7.578;2023-06-22T04:22:32;95209.50;;;16.47;54.72
77871;BME280;67067;46.850;7.578;2023-06-22T04:23:34;95205.91;;;16.38;55.33
77871;BME280;67067;46.850;7.578;2023-06-22T04:24:38;95204.38;;;16.51;54.92
77871;BME280;67067;46.850;7.578;2023-06-22T04:25:40;95205.53;;;16.45;55.30
77871;BME280;67067;46.850;7.578;2023-06-22T04:26:41;95202.13;;;16.58;55.34
77871;BME280;67067;46.850;7.578;2023-06-22T04:27:50;95204.84;;;16.72;54.87
77871;BME280;67067;46.850;7.578;2023-06-22T04:28:52;95210.56;;;16.66;54.67
77871;BME280;67067;46.850;7.578;2023-06-22T04:29:57;95217.88;;;16.79;54.45
77871;BME280;67067;46.850;7.578;2023-06-22T04:31:02;95219.88;;;16.87;54.02
77871;BME280;67067;46.850;7.578;2023-06-22T04:32:04;95217.72;;;16.89;53.66
77871;BME280;67067;46.850;7.578;2023-06-22T04:33:09;95216.31;;;16.92;54.00
77871;BME280;67067;46.850;7.578;2023-06-22T04:34:10;95210.88;;;16.83;54.53
77871;BME280;67067;46.850;7.578;2023-06-22T04:35:12;95209.03;;;16.98;54.04
77871;BME280;67067;46.850;7.578;2023-06-22T04:36:17;95209.44;;;17.05;53.88
77871;BME280;67067;46.850;7.578;2023-06-22T04:37:19;95210.94;;;17.11;53.59
77871;BME280;67067;46.850;7.578;2023-06-22T04:38:21;95210.84;;;17.16;53.43
77871;BME280;67067;46.850;7.578;2023-06-22T04:39:23;95209.47;;;17.19;53.42
77871;BME280;67067;46.850;7.578;2023-06-22T04:40:25;95207.97;;;17.27;53.68
77871;BME280;67067;46.850;7.578;2023-06-22T04:41:28;95213.22;;;17.32;53.50
77871;BME280;67067;46.850;7.578;2023-06-22T04:42:29;95209.91;;;17.40;53.00
77871;BME280;67067;46.850;7.578;2023-06-22T04:43:36;95207.72;;;17.42;53.03
77871;BME280;67067;46.850;7.578;2023-06-22T04:44:38;95210.88;;;17.44;52.86
77871;BME280;67067;46.850;7.578;2023-06-22T04:45:41;95211.06;;;17.48;52.61
77871;BME280;67067;46.850;7.578;2023-06-22T04:46:47;95214.50;;;17.54;52.87
77871;BME280;67067;46.850;7.578;2023-06-22T04:47:55;95212.81;;;17.58;52.71
77871;BME280;67067;46.850;7.578;2023-06-22T04:48:57;95215.66;;;17.61;52.49
77871;BME280;67067;46.850;7.578;2023-06-22T04:49:58;95220.63;;;17.54;52.85
77871;BME280;67067;46.850;7.578;2023-06-22T04:51:03;95215.56;;;17.67;52.59
77871;BME280;67067;46.850;7.578;2023-06-22T04:52:09;95224.00;;;17.74;52.38
77871;BME280;67067;46.850;7.578;2023-06-22T04:53:11;95226.38;;;17.75;52.17
77871;BME280;67067;46.850;7.578;2023-06-22T04:54:14;95222.81;;;17.80;52.04
77871;BME280;67067;46.850;7.578;2023-06-22T04:55:16;95209.13;;;17.82;52.17
77871;BME280;67067;46.850;7.578;2023-06-22T04:56:21;95207.94;;;17.88;52.46
77871;BME280;67067;46.850;7.578;2023-06-22T04:57:22;95210.72;;;17.83;52.28
77871;BME280;67067;46.850;7.578;2023-06-22T04:58:32;95198.09;;;17.97;51.91
77871;BME280;67067;46.850;7.578;2023-06-22T04:59:34;95211.88;;;18.04;51.48
77871;BME280;67067;46.850;7.578;2023-06-22T05:00:35;95213.28;;;17.88;52.00
77871;BME280;67067;46.850;7.578;2023-06-22T05:01:42;95217.25;;;18.04;51.67
77871;BME280;67067;46.850;7.578;2023-06-22T05:02:45;95228.84;;;18.14;51.79
77871;BME280;67067;46.850;7.578;2023-06-22T05:03:50;95227.13;;;18.18;51.33
77871;BME280;67067;46.850;7.578;2023-06-22T05:04:52;95229.50;;;18.19;51.74
77871;BME280;67067;46.850;7.578;2023-06-22T05:05:54;95236.44;;;18.20;51.82
77871;BME280;67067;46.850;7.578;2023-06-22T05:06:59;95235.06;;;18.23;51.90
77871;BME280;67067;46.850;7.578;2023-06-22T05:08:06;95235.66;;;18.20;51.99
77871;BME280;67067;46.850;7.578;2023-06-22T05:09:08;95239.03;;;18.26;51.65
77871;BME280;67067;46.850;7.578;2023-06-22T05:10:10;95241.91;;;18.15;51.53
77871;BME280;67067;46.850;7.578;2023-06-22T05:11:13;95239.41;;;18.33;51.61
77871;BME280;67067;46.850;7.578;2023-06-22T05:12:15;95237.44;;;18.39;51.39
77871;BME280;67067;46.850;7.578;2023-06-22T05:13:16;95235.47;;;18.30;51.27
77871;BME280;67067;46.850;7.578;2023-06-22T05:14:18;95238.91;;;18.45;51.04
77871;BME280;67067;46.850;7.578;2023-06-22T05:15:20;95244.94;;;18.50;50.60
77871;BME280;67067;46.850;7.578;2023-06-22T05:16:24;95252.38;;;18.54;50.68
77871;BME280;67067;46.850;7.578;2023-06-22T05:17:26;95253.84;;;18.60;50.68
77871;BME280;67067;46.850;7.578;2023-06-22T05:18:29;95252.75;;;18.61;50.50
77871;BME280;67067;46.850;7.578;2023-06-22T05:19:33;95263.16;;;18.62;50.28
77871;BME280;67067;46.850;7.578;2023-06-22T05:20:36;95257.69;;;18.68;50.16
77871;BME280;67067;46.850;7.578;2023-06-22T05:21:37;95261.41;;;18.58;50.72
77871;BME280;67067;46.850;7.578;2023-06-22T05:22:41;95257.88;;;18.71;50.16
77871;BME280;67067;46.850;7.578;2023-06-22T05:23:47;95261.41;;;18.80;50.29
77871;BME280;67067;46.850;7.578;2023-06-22T05:24:48;95257.03;;;18.85;50.25
77871;BME280;67067;46.850;7.578;2023-06-22T05:25:50;95261.28;;;18.86;50.46
77871;BME280;67067;46.850;7.578;2023-06-22T05:26:52;95266.22;;;19.06;49.94
77871;BME280;67067;46.850;7.578;2023-06-22T05:27:54;95274.16;;;19.20;49.71
77871;BME280;67067;46.850;7.578;2023-06-22T05:28:56;95273.06;;;19.21;49.10
77871;BME280;67067;46.850;7.578;2023-06-22T05:29:58;95271.00;;;19.41;49.08
77871;BME280;67067;46.850;7.578;2023-06-22T05:31:00;95274.88;;;19.58;48.61
77871;BME280;67067;46.850;7.578;2023-06-22T05:32:05;95277.66;;;19.75;47.89
77871;BME280;67067;46.850;7.578;2023-06-22T05:33:11;95275.44;;;19.77;48.11
77871;BME280;67067;46.850;7.578;2023-06-22T05:34:12;95274.34;;;19.78;47.94
77871;BME280;67067;46.850;7.578;2023-06-22T05:35:14;95274.41;;;19.96;47.72
77871;BME280;67067;46.850;7.578;2023-06-22T05:36:16;95275.25;;;20.05;47.71
77871;BME280;67067;46.850;7.578;2023-06-22T05:37:17;95278.66;;;20.46;46.50
77871;BME280;67067;46.850;7.578;2023-06-22T05:38:19;95280.09;;;20.70;45.81
77871;BME280;67067;46.850;7.578;2023-06-22T05:39:21;95270.16;;;21.06;45.38
77871;BME280;67067;46.850;7.578;2023-06-22T05:40:24;95269.94;;;21.37;44.72
77871;BME280;67067;46.850;7.578;2023-06-22T05:41:29;95263.84;;;21.58;44.77
77871;BME280;67067;46.850;7.578;2023-06-22T05:42:33;95267.19;;;21.64;44.53
77871;BME280;67067;46.850;7.578;2023-06-22T05:43:35;95266.34;;;21.63;44.33